Girona, Spain

5:19 PM CEST on September 02, 2014 (GMT +0200)
Salitja | Change Station
CLOSE
Current Station
Personal Weather Station
Location: Vilobi d'Onyar, CT
Elevation: 479 ft
Nearby Weather Stations

Elev 479 ft 41.91 °N, 2.74 °E | Updated 3 minutes ago

Partly Cloudy
Partly Cloudy
82.7 °F
Feels Like 85 °F
N
0.0
Wind Variable Wind from SSW
Gusts 0.0 mph

Today
High -- | Low -- °F
--% Chance of Precip.
Yesterday
High -- | Low -- °F
Precip. -- in
7:15 AM 8:21 PM
First Quarter, 52% visible
Pressure 29.89 in
Visibility 6.2 miles
Clouds Few 2500 ft
Heat Index 85 °F
Dew Point 66 °F
Humidity 57%
Rainfall 0.00 in
Snow Depth Not available.
UV 4 out of 12
Pollen Not available.
Air Quality Not available.
Flu Activity Not available.
METAR LEGE 021500Z 19011KT 160V240 9999 FEW025 28/23 Q1012

More Conditions Fewer Conditions

Pressure 29.89 in
Visibility 6.2 miles
Clouds Few 2500 ft
Heat Index 85 °F
Dew Point 66 °F
Humidity 57%
Rainfall 0.00 in
Snow Depth Not available.
UV 4 out of 12
Pollen Not available.
Air Quality Not available.
Flu Activity Not available.
METAR LEGE 021500Z 19011KT 160V240 9999 FEW025 28/23 Q1012

More Conditions Fewer Conditions

10-Day Weather Forecast

Almanac

Astronomy

Sep. 02, 2014 Rise Set
Actual Time 7:15 AM CEST 8:21 PM CEST
Civil Twilight 6:46 AM CEST 8:49 PM CEST
Nautical Twilight 6:12 AM CEST 9:23 PM CEST
Astronomical Twilight 5:36 AM CEST 9:59 PM CEST
Moon 2:51 PM CEST 12:05 AM CEST
Length of Visible Light 14h 02m
Length of Day
13h 05m
Tomorrow will be 2m 43s shorter.
First Quarter, 52% of the Moon is Illuminated
Today
First Quarter
Sep 8
Full
Sep 15
Last Quarter
Sep 24
New
Oct 1
First Quarter

Today's Extremes

Country Highs Country Lows

Community

WunderPhotos

Upload Photos

1,749,690 photos uploaded!

Nearby

Snow Depth

Not available.

Earthquake Activity

City Distance Mag. Time & Date
No recent earthquake activity has been reported nearby.
Minimum magnitude displayed is 2.5.

Coastal Water Temperatures

Place Temperature
No Stations Reporting

Nearby Weather Stations